sensor_id;sensor_type;location;lat;lon;timestamp;pressure;altitude;pressure_sealevel;temperature;humidity
28701;BME280;15877;52.344;16.790;2023-02-11T00:00:15;101927.56;;;4.11;74.99
28701;BME280;15877;52.344;16.790;2023-02-11T00:03:07;101937.05;;;4.26;74.36
28701;BME280;15877;52.344;16.790;2023-02-11T00:05:40;101938.85;;;4.27;74.17
28701;BME280;15877;52.344;16.790;2023-02-11T00:08:13;101936.02;;;4.06;74.92
28701;BME280;15877;52.344;16.790;2023-02-11T00:10:51;101922.84;;;4.11;74.59
28701;BME280;15877;52.344;16.790;2023-02-11T00:13:24;101928.63;;;4.26;74.27
28701;BME280;15877;52.344;16.790;2023-02-11T00:15:57;101923.20;;;4.22;74.26
28701;BME280;15877;52.344;16.790;2023-02-11T00:18:32;101919.39;;;4.31;73.85
28701;BME280;15877;52.344;16.790;2023-02-11T00:21:11;101920.26;;;4.19;74.30
28701;BME280;15877;52.344;16.790;2023-02-11T00:23:46;101923.67;;;4.18;74.36
28701;BME280;15877;52.344;16.790;2023-02-11T00:26:20;101925.42;;;4.34;73.91
28701;BME280;15877;52.344;16.790;2023-02-11T00:28:54;101921.92;;;4.46;73.44
28701;BME280;15877;52.344;16.790;2023-02-11T00:31:27;101929.91;;;4.23;73.81
28701;BME280;15877;52.344;16.790;2023-02-11T00:34:00;101927.90;;;4.40;73.54
28701;BME280;15877;52.344;16.790;2023-02-11T00:36:33;101920.52;;;4.28;73.59
28701;BME280;15877;52.344;16.790;2023-02-11T00:39:06;101906.33;;;4.29;73.64
28701;BME280;15877;52.344;16.790;2023-02-11T00:41:38;101905.68;;;4.19;74.03
28701;BME280;15877;52.344;16.790;2023-02-11T00:44:12;101906.05;;;4.42;73.46
28701;BME280;15877;52.344;16.790;2023-02-11T00:46:45;101904.43;;;4.37;73.28
28701;BME280;15877;52.344;16.790;2023-02-11T00:49:18;101897.25;;;4.26;73.66
28701;BME280;15877;52.344;16.790;2023-02-11T00:51:51;101899.88;;;4.38;73.24
28701;BME280;15877;52.344;16.790;2023-02-11T00:54:23;101886.84;;;4.36;73.20
28701;BME280;15877;52.344;16.790;2023-02-11T00:56:59;101866.19;;;4.32;73.36
28701;BME280;15877;52.344;16.790;2023-02-11T00:59:32;101858.37;;;4.38;72.91
28701;BME280;15877;52.344;16.790;2023-02-11T01:02:04;101849.05;;;4.28;73.33
28701;BME280;15877;52.344;16.790;2023-02-11T01:04:37;101821.25;;;4.30;72.85
28701;BME280;15877;52.344;16.790;2023-02-11T01:07:10;101829.00;;;4.31;73.25
28701;BME280;15877;52.344;16.790;2023-02-11T01:09:43;101821.92;;;4.27;73.17
28701;BME280;15877;52.344;16.790;2023-02-11T01:12:16;101811.64;;;4.32;73.14
28701;BME280;15877;52.344;16.790;2023-02-11T01:14:48;101800.41;;;4.15;73.45
28701;BME280;15877;52.344;16.790;2023-02-11T01:17:26;101790.82;;;4.42;72.72
28701;BME280;15877;52.344;16.790;2023-02-11T01:20:00;101783.03;;;4.33;72.71
28701;BME280;15877;52.344;16.790;2023-02-11T01:22:33;101772.52;;;4.38;72.66
28701;BME280;15877;52.344;16.790;2023-02-11T01:25:09;101765.55;;;4.40;72.60
28701;BME280;15877;52.344;16.790;2023-02-11T01:27:41;101766.67;;;4.50;71.94
28701;BME280;15877;52.344;16.790;2023-02-11T01:30:15;101761.14;;;4.21;72.63
28701;BME280;15877;52.344;16.790;2023-02-11T01:32:50;101735.59;;;4.23;72.66
28701;BME280;15877;52.344;16.790;2023-02-11T01:35:22;101731.72;;;4.14;72.73
28701;BME280;15877;52.344;16.790;2023-02-11T01:37:55;101742.89;;;4.20;72.55
28701;BME280;15877;52.344;16.790;2023-02-11T01:40:27;101755.23;;;4.18;72.90
28701;BME280;15877;52.344;16.790;2023-02-11T01:43:00;101759.84;;;4.20;72.90
28701;BME280;15877;52.344;16.790;2023-02-11T01:46:00;101769.73;;;4.21;72.89
28701;BME280;15877;52.344;16.790;2023-02-11T01:48:37;101777.14;;;4.29;72.80
28701;BME280;15877;52.344;16.790;2023-02-11T01:51:14;101760.89;;;4.42;71.68
28701;BME280;15877;52.344;16.790;2023-02-11T01:53:48;101788.27;;;4.59;71.16
28701;BME280;15877;52.344;16.790;2023-02-11T01:56:41;101807.67;;;4.77;70.82
28701;BME280;15877;52.344;16.790;2023-02-11T01:59:37;101802.31;;;4.58;70.62
28701;BME280;15877;52.344;16.790;2023-02-11T02:02:14;101827.84;;;4.55;70.91
28701;BME280;15877;52.344;16.790;2023-02-11T02:04:54;101833.35;;;4.49;71.29
28701;BME280;15877;52.344;16.790;2023-02-11T02:07:33;101839.65;;;4.52;71.14
28701;BME280;15877;52.344;16.790;2023-02-11T02:10:10;101826.41;;;4.31;71.84
28701;BME280;15877;52.344;16.790;2023-02-11T02:12:44;101816.73;;;4.38;71.91
28701;BME280;15877;52.344;16.790;2023-02-11T02:15:23;101818.51;;;4.46;71.72
28701;BME280;15877;52.344;16.790;2023-02-11T02:17:59;101814.13;;;4.55;71.43
28701;BME280;15877;52.344;16.790;2023-02-11T02:24:19;101781.55;;;4.45;71.75
28701;BME280;15877;52.344;16.790;2023-02-11T02:27:24;101773.98;;;4.52;71.57
28701;BME280;15877;52.344;16.790;2023-02-11T02:33:31;101755.64;;;4.57;70.99
28701;BME280;15877;52.344;16.790;2023-02-11T02:36:11;101751.71;;;4.49;71.38
28701;BME280;15877;52.344;16.790;2023-02-11T02:38:49;101752.71;;;4.53;71.12
28701;BME280;15877;52.344;16.790;2023-02-11T02:41:25;101747.14;;;4.13;72.32
28701;BME280;15877;52.344;16.790;2023-02-11T02:43:59;101738.37;;;4.26;72.22
28701;BME280;15877;52.344;16.790;2023-02-11T02:46:33;101730.72;;;4.31;72.00
28701;BME280;15877;52.344;16.790;2023-02-11T02:49:13;101734.54;;;4.50;71.29
28701;BME280;15877;52.344;16.790;2023-02-11T02:52:04;101729.36;;;4.24;71.59
28701;BME280;15877;52.344;16.790;2023-02-11T02:54:57;101721.45;;;4.07;72.55
28701;BME280;15877;52.344;16.790;2023-02-11T02:57:41;101715.12;;;4.35;71.83
28701;BME280;15877;52.344;16.790;2023-02-11T03:00:23;101715.92;;;4.36;71.44
28701;BME280;15877;52.344;16.790;2023-02-11T03:03:13;101713.58;;;4.48;71.20
28701;BME280;15877;52.344;16.790;2023-02-11T03:05:53;101716.98;;;4.44;70.89
28701;BME280;15877;52.344;16.790;2023-02-11T03:08:31;101726.30;;;4.36;71.26
28701;BME280;15877;52.344;16.790;2023-02-11T03:11:06;101726.73;;;4.28;71.57
28701;BME280;15877;52.344;16.790;2023-02-11T03:13:41;101722.15;;;4.25;71.72
28701;BME280;15877;52.344;16.790;2023-02-11T03:16:17;101719.32;;;4.42;71.36
28701;BME280;15877;52.344;16.790;2023-02-11T03:18:56;101714.04;;;4.47;71.33
28701;BME280;15877;52.344;16.790;2023-02-11T03:21:31;101712.80;;;4.45;71.07
28701;BME280;15877;52.344;16.790;2023-02-11T03:24:07;101705.66;;;4.53;70.86
28701;BME280;15877;52.344;16.790;2023-02-11T03:26:45;101683.57;;;4.37;70.91
28701;BME280;15877;52.344;16.790;2023-02-11T03:29:30;101694.14;;;4.54;70.87
28701;BME280;15877;52.344;16.790;2023-02-11T03:32:05;101691.14;;;4.74;70.15
28701;BME280;15877;52.344;16.790;2023-02-11T03:34:46;101688.56;;;4.73;69.80
28701;BME280;15877;52.344;16.790;2023-02-11T03:37:22;101675.95;;;4.53;70.58
28701;BME280;15877;52.344;16.790;2023-02-11T03:40:01;101670.14;;;4.50;70.68
28701;BME280;15877;52.344;16.790;2023-02-11T03:42:37;101675.70;;;4.45;70.90
28701;BME280;15877;52.344;16.790;2023-02-11T03:45:14;101671.66;;;4.52;70.72
28701;BME280;15877;52.344;16.790;2023-02-11T03:47:51;101660.73;;;4.41;71.05
28701;BME280;15877;52.344;16.790;2023-02-11T03:50:27;101661.27;;;4.59;70.55
28701;BME280;15877;52.344;16.790;2023-02-11T03:53:02;101647.71;;;4.47;70.81
28701;BME280;15877;52.344;16.790;2023-02-11T03:55:37;101638.86;;;4.46;71.06
28701;BME280;15877;52.344;16.790;2023-02-11T03:58:10;101629.73;;;4.30;71.61
28701;BME280;15877;52.344;16.790;2023-02-11T04:00:43;101624.06;;;4.33;71.67
28701;BME280;15877;52.344;16.790;2023-02-11T04:03:17;101632.13;;;4.44;71.57
28701;BME280;15877;52.344;16.790;2023-02-11T04:05:50;101630.28;;;4.60;70.80
28701;BME280;15877;52.344;16.790;2023-02-11T04:08:23;101608.36;;;4.39;71.22
28701;BME280;15877;52.344;16.790;2023-02-11T04:10:55;101621.48;;;4.50;71.41
28701;BME280;15877;52.344;16.790;2023-02-11T04:13:27;101609.02;;;4.34;71.91
28701;BME280;15877;52.344;16.790;2023-02-11T04:16:00;101611.77;;;4.36;72.02
28701;BME280;15877;52.344;16.790;2023-02-11T04:18:35;101614.43;;;4.37;72.10
28701;BME280;15877;52.344;16.790;2023-02-11T04:21:07;101606.44;;;4.43;72.22
28701;BME280;15877;52.344;16.790;2023-02-11T04:23:40;101603.25;;;4.63;71.68
28701;BME280;15877;52.344;16.790;2023-02-11T04:26:12;101609.43;;;4.70;71.28
28701;BME280;15877;52.344;16.790;2023-02-11T04:29:03;101608.17;;;4.62;71.75
28701;BME280;15877;52.344;16.790;2023-02-11T04:31:35;101604.43;;;4.65;71.74
28701;BME280;15877;52.344;16.790;2023-02-11T04:34:08;101602.82;;;4.63;71.73
28701;BME280;15877;52.344;16.790;2023-02-11T04:36:40;101599.70;;;4.49;72.30
28701;BME280;15877;52.344;16.790;2023-02-11T04:39:13;101591.55;;;4.38;72.97
28701;BME280;15877;52.344;16.790;2023-02-11T04:41:46;101588.23;;;4.50;73.07
28701;BME280;15877;52.344;16.790;2023-02-11T04:44:18;101580.84;;;4.48;73.16
28701;BME280;15877;52.344;16.790;2023-02-11T04:46:50;101570.48;;;4.60;73.10
28701;BME280;15877;52.344;16.790;2023-02-11T04:49:23;101571.55;;;4.64;72.89
28701;BME280;15877;52.344;16.790;2023-02-11T04:51:55;101568.14;;;4.67;73.09
28701;BME280;15877;52.344;16.790;2023-02-11T04:54:28;101573.14;;;4.55;73.48
28701;BME280;15877;52.344;16.790;2023-02-11T04:57:01;101569.64;;;4.57;73.79
28701;BME280;15877;52.344;16.790;2023-02-11T04:59:34;101575.31;;;4.62;73.52
28701;BME280;15877;52.344;16.790;2023-02-11T05:02:06;101561.27;;;4.66;73.45
28701;BME280;15877;52.344;16.790;2023-02-11T05:04:39;101554.67;;;4.65;73.69
28701;BME280;15877;52.344;16.790;2023-02-11T05:07:12;101562.20;;;4.59;73.93
28701;BME280;15877;52.344;16.790;2023-02-11T05:09:45;101565.73;;;4.50;74.34
28701;BME280;15877;52.344;16.790;2023-02-11T05:12:17;101564.54;;;4.33;75.28
28701;BME280;15877;52.344;16.790;2023-02-11T05:14:50;101554.76;;;4.44;75.17
28701;BME280;15877;52.344;16.790;2023-02-11T05:17:22;101531.45;;;4.17;75.76
28701;BME280;15877;52.344;16.790;2023-02-11T05:19:56;101540.76;;;4.48;75.43
28701;BME280;15877;52.344;16.790;2023-02-11T05:22:28;101539.80;;;4.74;74.44
28701;BME280;15877;52.344;16.790;2023-02-11T05:25:01;101547.75;;;4.64;74.53
28701;BME280;15877;52.344;16.790;2023-02-11T05:27:34;101538.30;;;4.51;75.09
28701;BME280;15877;52.344;16.790;2023-02-11T05:30:09;101536.67;;;4.62;74.97
28701;BME280;15877;52.344;16.790;2023-02-11T05:32:43;101531.87;;;4.63;74.97
28701;BME280;15877;52.344;16.790;2023-02-11T05:35:15;101531.77;;;4.76;74.61
28701;BME280;15877;52.344;16.790;2023-02-11T05:37:48;101519.48;;;4.48;75.18
28701;BME280;15877;52.344;16.790;2023-02-11T05:40:21;101501.63;;;4.20;75.94
28701;BME280;15877;52.344;16.790;2023-02-11T05:42:53;101536.46;;;4.57;75.94
28701;BME280;15877;52.344;16.790;2023-02-11T05:45:26;101527.56;;;4.56;75.58
28701;BME280;15877;52.344;16.790;2023-02-11T05:47:59;101531.61;;;4.49;75.97
28701;BME280;15877;52.344;16.790;2023-02-11T05:50:31;101527.89;;;4.41;76.65
28701;BME280;15877;52.344;16.790;2023-02-11T05:53:04;101516.98;;;4.38;77.36
28701;BME280;15877;52.344;16.790;2023-02-11T05:55:37;101513.90;;;4.41;77.27
28701;BME280;15877;52.344;16.790;2023-02-11T05:58:09;101508.61;;;4.46;77.42
28701;BME280;15877;52.344;16.790;2023-02-11T06:00:42;101507.95;;;4.38;77.73
28701;BME280;15877;52.344;16.790;2023-02-11T06:03:15;101516.77;;;4.41;77.86
28701;BME280;15877;52.344;16.790;2023-02-11T06:05:48;101522.61;;;4.33;78.17
28701;BME280;15877;52.344;16.790;2023-02-11T06:08:21;101521.96;;;4.44;78.16
28701;BME280;15877;52.344;16.790;2023-02-11T06:10:54;101517.73;;;4.51;77.92
28701;BME280;15877;52.344;16.790;2023-02-11T06:13:26;101517.25;;;4.31;78.49
28701;BME280;15877;52.344;16.790;2023-02-11T06:15:59;101513.33;;;4.54;78.22
28701;BME280;15877;52.344;16.790;2023-02-11T06:18:35;101511.55;;;4.56;78.01
28701;BME280;15877;52.344;16.790;2023-02-11T06:21:09;101515.04;;;4.47;78.37
28701;BME280;15877;52.344;16.790;2023-02-11T06:23:42;101509.63;;;4.52;78.43
28701;BME280;15877;52.344;16.790;2023-02-11T06:26:21;101510.19;;;4.47;78.77
28701;BME280;15877;52.344;16.790;2023-02-11T06:28:54;101502.06;;;4.64;78.49
28701;BME280;15877;52.344;16.790;2023-02-11T06:31:26;101519.18;;;4.65;78.33
28701;BME280;15877;52.344;16.790;2023-02-11T06:33:59;101516.75;;;4.61;78.65
28701;BME280;15877;52.344;16.790;2023-02-11T06:36:32;101513.41;;;4.74;78.29
28701;BME280;15877;52.344;16.790;2023-02-11T06:39:04;101510.23;;;4.63;78.65
28701;BME280;15877;52.344;16.790;2023-02-11T06:41:38;101497.70;;;4.54;79.41
28701;BME280;15877;52.344;16.790;2023-02-11T06:44:10;101490.48;;;4.59;79.73
28701;BME280;15877;52.344;16.790;2023-02-11T06:46:43;101493.34;;;4.76;79.18
28701;BME280;15877;52.344;16.790;2023-02-11T06:49:17;101494.69;;;4.74;79.43
28701;BME280;15877;52.344;16.790;2023-02-11T06:51:50;101495.02;;;4.85;79.32
28701;BME280;15877;52.344;16.790;2023-02-11T06:54:23;101494.35;;;4.92;78.94
28701;BME280;15877;52.344;16.790;2023-02-11T06:56:59;101501.17;;;4.82;79.40
28701;BME280;15877;52.344;16.790;2023-02-11T06:59:32;101512.59;;;4.81;79.79
28701;BME280;15877;52.344;16.790;2023-02-11T07:02:07;101507.44;;;4.79;80.06
28701;BME280;15877;52.344;16.790;2023-02-11T07:04:40;101513.84;;;4.92;79.77
28701;BME280;15877;52.344;16.790;2023-02-11T07:07:13;101512.17;;;4.80;80.46
28701;BME280;15877;52.344;16.790;2023-02-11T07:09:45;101512.65;;;4.97;80.13
28701;BME280;15877;52.344;16.790;2023-02-11T07:12:18;101501.19;;;5.02;79.76
28701;BME280;15877;52.344;16.790;2023-02-11T07:14:50;101505.65;;;5.14;79.59
28701;BME280;15877;52.344;16.790;2023-02-11T07:17:23;101499.86;;;5.14;79.55
28701;BME280;15877;52.344;16.790;2023-02-11T07:19:57;101495.39;;;5.02;79.95
28701;BME280;15877;52.344;16.790;2023-02-11T07:22:29;101499.52;;;4.89;80.60
28701;BME280;15877;52.344;16.790;2023-02-11T07:25:02;101503.73;;;4.80;81.43
28701;BME280;15877;52.344;16.790;2023-02-11T07:27:35;101493.63;;;4.85;81.56
28701;BME280;15877;52.344;16.790;2023-02-11T07:30:10;101486.09;;;4.94;81.45
28701;BME280;15877;52.344;16.790;2023-02-11T07:32:43;101477.70;;;5.00;81.23
28701;BME280;15877;52.344;16.790;2023-02-11T07:35:15;101463.34;;;5.14;80.87
28701;BME280;15877;52.344;16.790;2023-02-11T07:37:48;101480.11;;;5.19;80.34
28701;BME280;15877;52.344;16.790;2023-02-11T07:40:20;101482.04;;;5.10;80.76
28701;BME280;15877;52.344;16.790;2023-02-11T07:42:53;101463.58;;;5.15;80.51
28701;BME280;15877;52.344;16.790;2023-02-11T07:45:25;101477.14;;;5.27;80.17
28701;BME280;15877;52.344;16.790;2023-02-11T07:47:58;101466.29;;;5.19;80.70
28701;BME280;15877;52.344;16.790;2023-02-11T07:50:31;101469.81;;;5.16;80.90
28701;BME280;15877;52.344;16.790;2023-02-11T07:53:03;101467.92;;;5.29;80.65
28701;BME280;15877;52.344;16.790;2023-02-11T07:55:36;101444.08;;;5.07;80.53
28701;BME280;15877;52.344;16.790;2023-02-11T07:58:08;101460.23;;;5.18;81.02
28701;BME280;15877;52.344;16.790;2023-02-11T08:00:41;101461.37;;;5.05;81.56
28701;BME280;15877;52.344;16.790;2023-02-11T08:03:14;101457.63;;;5.13;81.57
28701;BME280;15877;52.344;16.790;2023-02-11T08:05:46;101463.30;;;5.20;81.39
28701;BME280;15877;52.344;16.790;2023-02-11T08:08:19;101450.56;;;5.23;80.89
28701;BME280;15877;52.344;16.790;2023-02-11T08:10:52;101469.98;;;5.33;80.82
28701;BME280;15877;52.344;16.790;2023-02-11T08:13:24;101479.06;;;5.16;81.26
28701;BME280;15877;52.344;16.790;2023-02-11T08:15:59;101483.80;;;5.18;81.38
28701;BME280;15877;52.344;16.790;2023-02-11T08:18:32;101478.42;;;5.24;81.36
28701;BME280;15877;52.344;16.790;2023-02-11T08:21:10;101483.69;;;5.28;81.30
28701;BME280;15877;52.344;16.790;2023-02-11T08:23:43;101487.83;;;5.43;80.91
28701;BME280;15877;52.344;16.790;2023-02-11T08:26:18;101483.15;;;5.31;81.48
28701;BME280;15877;52.344;16.790;2023-02-11T08:28:53;101478.58;;;5.40;81.41
28701;BME280;15877;52.344;16.790;2023-02-11T08:31:28;101475.82;;;5.37;81.56
28701;BME280;15877;52.344;16.790;2023-02-11T08:34:01;101480.14;;;5.38;81.63
28701;BME280;15877;52.344;16.790;2023-02-11T08:36:37;101481.23;;;5.35;81.83
28701;BME280;15877;52.344;16.790;2023-02-11T08:39:14;101478.70;;;5.44;81.54
28701;BME280;15877;52.344;16.790;2023-02-11T08:41:52;101477.39;;;5.55;81.21
28701;BME280;15877;52.344;16.790;2023-02-11T08:44:26;101478.09;;;5.53;81.09
28701;BME280;15877;52.344;16.790;2023-02-11T08:46:59;101475.13;;;5.53;81.05
28701;BME280;15877;52.344;16.790;2023-02-11T08:49:32;101476.80;;;5.68;80.64
28701;BME280;15877;52.344;16.790;2023-02-11T08:52:04;101471.66;;;5.68;80.32
28701;BME280;15877;52.344;16.790;2023-02-11T08:54:37;101462.02;;;5.69;80.50
28701;BME280;15877;52.344;16.790;2023-02-11T08:57:09;101459.32;;;5.57;80.70
28701;BME280;15877;52.344;16.790;2023-02-11T08:59:42;101460.54;;;5.57;81.28
28701;BME280;15877;52.344;16.790;2023-02-11T09:02:15;101453.33;;;5.54;81.41
28701;BME280;15877;52.344;16.790;2023-02-11T09:04:47;101453.30;;;5.61;81.44
28701;BME280;15877;52.344;16.790;2023-02-11T09:07:20;101451.88;;;5.52;81.75
28701;BME280;15877;52.344;16.790;2023-02-11T09:09:53;101455.58;;;5.54;81.78
28701;BME280;15877;52.344;16.790;2023-02-11T09:12:25;101442.31;;;5.51;81.79
28701;BME280;15877;52.344;16.790;2023-02-11T09:14:58;101456.99;;;5.72;81.29
28701;BME280;15877;52.344;16.790;2023-02-11T09:17:30;101460.18;;;5.67;81.43
28701;BME280;15877;52.344;16.790;2023-02-11T09:20:04;101464.79;;;5.79;81.15
28701;BME280;15877;52.344;16.790;2023-02-11T09:22:39;101465.20;;;5.86;80.70
28701;BME280;15877;52.344;16.790;2023-02-11T09:25:12;101471.54;;;6.07;80.09
28701;BME280;15877;52.344;16.790;2023-02-11T09:27:44;101481.66;;;5.90;80.44
28701;BME280;15877;52.344;16.790;2023-02-11T09:30:17;101485.47;;;5.84;80.68
28701;BME280;15877;52.344;16.790;2023-02-11T09:32:50;101477.78;;;5.83;81.01
28701;BME280;15877;52.344;16.790;2023-02-11T09:35:23;101475.14;;;5.80;81.18
28701;BME280;15877;52.344;16.790;2023-02-11T09:37:56;101470.77;;;5.77;81.51
28701;BME280;15877;52.344;16.790;2023-02-11T09:40:28;101461.27;;;5.92;81.42
28701;BME280;15877;52.344;16.790;2023-02-11T09:43:04;101462.29;;;6.02;80.79
28701;BME280;15877;52.344;16.790;2023-02-11T09:45:39;101465.52;;;5.92;81.15
28701;BME280;15877;52.344;16.790;2023-02-11T09:48:16;101461.02;;;5.89;81.49
28701;BME280;15877;52.344;16.790;2023-02-11T09:50:51;101473.54;;;6.17;80.72
28701;BME280;15877;52.344;16.790;2023-02-11T09:53:26;101464.66;;;6.24;80.01
28701;BME280;15877;52.344;16.790;2023-02-11T09:56:01;101450.98;;;6.04;80.90
28701;BME280;15877;52.344;16.790;2023-02-11T09:58:37;101443.13;;;6.17;80.81
28701;BME280;15877;52.344;16.790;2023-02-11T10:01:15;101436.42;;;6.28;80.46
28701;BME280;15877;52.344;16.790;2023-02-11T10:04:02;101435.73;;;6.22;80.80
28701;BME280;15877;52.344;16.790;2023-02-11T10:06:40;101449.21;;;6.38;80.27
28701;BME280;15877;52.344;16.790;2023-02-11T10:09:22;101455.61;;;6.50;79.91
28701;BME280;15877;52.344;16.790;2023-02-11T10:12:10;101425.59;;;6.52;79.51
28701;BME280;15877;52.344;16.790;2023-02-11T10:18:00;101451.08;;;6.80;79.51
28701;BME280;15877;52.344;16.790;2023-02-11T10:20:43;101443.36;;;6.83;79.25
28701;BME280;15877;52.344;16.790;2023-02-11T10:23:21;101437.33;;;6.77;79.33
28701;BME280;15877;52.344;16.790;2023-02-11T10:25:57;101417.14;;;6.65;80.28
28701;BME280;15877;52.344;16.790;2023-02-11T10:28:31;101416.61;;;6.60;81.00
28701;BME280;15877;52.344;16.790;2023-02-11T10:31:04;101411.78;;;6.58;81.37
28701;BME280;15877;52.344;16.790;2023-02-11T10:33:45;101413.35;;;6.62;81.56
28701;BME280;15877;52.344;16.790;2023-02-11T10:36:21;101410.27;;;6.68;81.58
28701;BME280;15877;52.344;16.790;2023-02-11T10:38:55;101407.95;;;6.64;81.80
28701;BME280;15877;52.344;16.790;2023-02-11T10:41:32;101404.64;;;6.66;82.24
28701;BME280;15877;52.344;16.790;2023-02-11T10:44:10;101403.96;;;6.58;82.69
28701;BME280;15877;52.344;16.790;2023-02-11T10:46:44;101398.08;;;6.57;83.17
28701;BME280;15877;52.344;16.790;2023-02-11T10:49:35;101398.95;;;6.66;82.95
28701;BME280;15877;52.344;16.790;2023-02-11T10:52:18;101402.73;;;6.84;82.35
28701;BME280;15877;52.344;16.790;2023-02-11T10:54:59;101378.98;;;6.60;83.42
28701;BME280;15877;52.344;16.790;2023-02-11T10:57:35;101368.32;;;6.46;84.16
28701;BME280;15877;52.344;16.790;2023-02-11T11:00:22;101376.79;;;6.47;84.51
28701;BME280;15877;52.344;16.790;2023-02-11T11:02:59;101392.09;;;6.60;84.29
28701;BME280;15877;52.344;16.790;2023-02-11T11:05:35;101372.36;;;6.54;84.29
28701;BME280;15877;52.344;16.790;2023-02-11T11:08:09;101374.21;;;6.55;84.67
28701;BME280;15877;52.344;16.790;2023-02-11T11:10:44;101365.59;;;6.53;84.64
28701;BME280;15877;52.344;16.790;2023-02-11T11:13:24;101359.25;;;6.55;84.75
28701;BME280;15877;52.344;16.790;2023-02-11T11:16:21;101343.61;;;6.55;84.89
28701;BME280;15877;52.344;16.790;2023-02-11T11:19:18;101327.74;;;6.58;85.01
28701;BME280;15877;52.344;16.790;2023-02-11T11:21:52;101324.23;;;6.60;84.90
28701;BME280;15877;52.344;16.790;2023-02-11T11:24:28;101320.40;;;6.65;85.05
28701;BME280;15877;52.344;16.790;2023-02-11T11:27:05;101332.44;;;6.54;85.56
28701;BME280;15877;52.344;16.790;2023-02-11T11:29:41;101321.89;;;6.59;85.72
28701;BME280;15877;52.344;16.790;2023-02-11T11:32:21;101317.40;;;6.69;85.31
28701;BME280;15877;52.344;16.790;2023-02-11T11:34:59;101324.15;;;6.56;85.77
28701;BME280;15877;52.344;16.790;2023-02-11T11:37:36;101326.83;;;6.64;85.87
28701;BME280;15877;52.344;16.790;2023-02-11T11:40:23;101318.23;;;6.56;86.18
28701;BME280;15877;52.344;16.790;2023-02-11T11:43:14;101316.13;;;6.63;86.34
28701;BME280;15877;52.344;16.790;2023-02-11T11:45:58;101292.08;;;6.50;86.56
28701;BME280;15877;52.344;16.790;2023-02-11T11:48:35;101297.48;;;6.70;86.62
28701;BME280;15877;52.344;16.790;2023-02-11T11:51:11;101288.70;;;6.70;86.72
28701;BME280;15877;52.344;16.790;2023-02-11T11:53:50;101233.77;;;6.40;86.35
28701;BME280;15877;52.344;16.790;2023-02-11T11:56:35;101299.90;;;6.65;86.51
28701;BME280;15877;52.344;16.790;2023-02-11T11:59:13;101327.36;;;7.01;85.72
28701;BME280;15877;52.344;16.790;2023-02-11T12:01:57;101334.30;;;7.05;85.27
28701;BME280;15877;52.344;16.790;2023-02-11T12:05:01;101343.64;;;7.13;84.69
28701;BME280;15877;52.344;16.790;2023-02-11T12:07:51;101347.80;;;7.19;84.42
28701;BME280;15877;52.344;16.790;2023-02-11T12:10:38;101345.84;;;7.16;84.24
28701;BME280;15877;52.344;16.790;2023-02-11T12:13:22;101349.11;;;7.12;84.63
28701;BME280;15877;52.344;16.790;2023-02-11T12:16:06;101358.16;;;7.27;84.10
28701;BME280;15877;52.344;16.790;2023-02-11T12:18:58;101370.70;;;7.30;84.20
28701;BME280;15877;52.344;16.790;2023-02-11T12:21:47;101365.95;;;7.29;84.50
28701;BME280;15877;52.344;16.790;2023-02-11T12:24:36;101368.73;;;7.23;85.21
28701;BME280;15877;52.344;16.790;2023-02-11T12:27:16;101370.91;;;7.18;85.85
28701;BME280;15877;52.344;16.790;2023-02-11T12:30:01;101354.40;;;7.18;85.97
28701;BME280;15877;52.344;16.790;2023-02-11T12:32:42;101367.42;;;7.32;85.80
28701;BME280;15877;52.344;16.790;2023-02-11T12:35:33;101367.48;;;7.35;86.09
28701;BME280;15877;52.344;16.790;2023-02-11T12:38:34;101369.39;;;7.38;86.22
28701;BME280;15877;52.344;16.790;2023-02-11T12:41:29;101365.56;;;7.31;86.87
28701;BME280;15877;52.344;16.790;2023-02-11T12:44:30;101366.27;;;7.28;87.40
28701;BME280;15877;52.344;16.790;2023-02-11T12:47:12;101360.36;;;7.32;87.35
28701;BME280;15877;52.344;16.790;2023-02-11T12:49:59;101357.70;;;7.24;87.77
28701;BME280;15877;52.344;16.790;2023-02-11T12:52:43;101355.66;;;7.34;87.74
28701;BME280;15877;52.344;16.790;2023-02-11T12:55:23;101355.98;;;7.23;88.17
28701;BME280;15877;52.344;16.790;2023-02-11T12:57:58;101358.27;;;7.27;88.36
28701;BME280;15877;52.344;16.790;2023-02-11T13:00:41;101339.12;;;7.13;88.55
28701;BME280;15877;52.344;16.790;2023-02-11T13:03:20;101350.77;;;7.13;88.68
28701;BME280;15877;52.344;16.790;2023-02-11T13:05:59;101370.64;;;7.40;88.18
28701;BME280;15877;52.344;16.790;2023-02-11T13:08:37;101370.65;;;7.26;88.60
28701;BME280;15877;52.344;16.790;2023-02-11T13:11:19;101372.20;;;7.28;88.87
28701;BME280;15877;52.344;16.790;2023-02-11T13:13:56;101375.23;;;7.32;88.87
28701;BME280;15877;52.344;16.790;2023-02-11T13:16:35;101367.80;;;7.35;88.90
28701;BME280;15877;52.344;16.790;2023-02-11T13:19:19;101381.19;;;7.40;88.59
28701;BME280;15877;52.344;16.790;2023-02-11T13:22:06;101380.05;;;7.26;89.29
28701;BME280;15877;52.344;16.790;2023-02-11T13:24:42;101375.30;;;7.26;89.75
28701;BME280;15877;52.344;16.790;2023-02-11T13:27:23;101382.77;;;7.21;90.09
28701;BME280;15877;52.344;16.790;2023-02-11T13:30:21;101381.39;;;7.27;90.30
28701;BME280;15877;52.344;16.790;2023-02-11T13:33:19;101374.42;;;7.33;90.10
28701;BME280;15877;52.344;16.790;2023-02-11T13:36:13;101374.73;;;7.34;90.17
28701;BME280;15877;52.344;16.790;2023-02-11T13:38:58;101367.00;;;7.32;90.24
28701;BME280;15877;52.344;16.790;2023-02-11T13:41:36;101354.31;;;7.23;90.25
28701;BME280;15877;52.344;16.790;2023-02-11T13:44:26;101378.06;;;7.27;90.86
28701;BME280;15877;52.344;16.790;2023-02-11T13:47:02;101381.30;;;7.24;91.24
28701;BME280;15877;52.344;16.790;2023-02-11T13:49:40;101382.02;;;7.30;91.15